Avalon, California
Current Conditions -  °F | °C
As of 5:51 AM on Sunday 23 Nov 2014 (Local Time) from KAVX Reporting Station
Clear Clear  
Wind Chill: 55°   Ceiling: Unl
Heat Index: 55°   Visibility: 10mi
Dew Point: 49°   Wind: 12mph
Humidity: 80%   Direction: 30°NNE
Pressure: 30.09"   Gusts: NA
Location:  33.34°N, 118.33°W
Report Text: KAVX 231351Z AUTO 03010KT 10SM CLR 13/09 A3009 RMK AO2 SLP182 T01280094
Loading
Personal Weather Stations






























Interactive Weather Map New forecast layout! Learn more

10-Day Weather Forecast

Advertisements
Track Severe Weather on mobile